• Join FlightAware (Why Join?)
  • Login
  • US Flag 
08:36AM EDT


 

Airport Tracker/Info


-or-


 

Live Flight TrackerFlight Track Log ✈ SKW6492 ✈ 23-Jan-2014 ✈ KDEN - KCOD

Flight Track Log - Related Links

Times and Time Zones

All times are in EST time to prevent confusion due to time zone crossing. See the SKW6492 flight status page for this flight to view local times or setup timezone preferences in your user account.

Time Position Orientation Groundspeed Altitude Reporting Facility
EST Latitude Longitude Course Direction KTS MPH feet Rate Location/Type
10:56PM 39.8500 -104.7667 346° North 181 208 6,900  Level Denver TRACON
10:57PM 39.8833 -104.8500 298° West 253 291 9,100 2,460 Climbing Denver TRACON
10:58PM 39.9500 -104.9000 330° Northwest 278 320 12,400 2,280 Climbing Denver TRACON
10:59PM 40.0167 -104.9000 360° North 322 371 13,700 1,800 Climbing Denver TRACON
11:01PM 40.1667 -104.8897 North 338 389 16,800 1,800 Climbing Denver Center
11:02PM 40.4289 -104.8541 346° North  Level FlightAware Approximate
11:02PM 40.2614 -104.8842 North 341 392 18,400  Level Denver Center
11:03PM 40.3611 -104.8775 North 355 409 20,200 1,440 Climbing Denver Center
11:04PM 40.4572 -104.8722 North 349 402 21,400 1,200 Climbing Denver Center
11:05PM 40.5606 -104.8631 North 366 421 22,700 1,140 Climbing Denver Center
11:06PM 40.6650 -104.8553 North 374 430 23,800 960 Climbing Denver Center
11:07PM 40.7719 -104.8486 North 383 441 24,700 1,020 Climbing Denver Center
11:08PM 40.8978 -104.9033 342° North 397 457 25,900 960 Climbing Denver Center
11:09PM 41.0033 -104.9553 340° North 402 463 26,700 1,020 Climbing Denver Center
11:10PM 41.1033 -105.0056 339° North 405 466 28,000 1,320 Climbing Denver Center
11:11PM 41.1992 -105.0564 338° Northwest 393 452 29,400 1,260 Climbing Denver Center
11:12PM 41.3089 -105.1069 341° North 377 434 30,700 1,200 Climbing Denver Center
11:13PM 41.3992 -105.1539 339° North 368 423 31,900 600 Climbing Denver Center
11:14PM 41.4956 -105.2389 327° Northwest 374 430 32,000  Climbing Denver Center
11:15PM 41.5758 -105.3328 319° Northwest 391 450 32,000  Level Denver Center
11:16PM 41.6569 -105.4275 319° Northwest 401 461 32,000  Level Denver Center
11:17PM 41.7539 -105.5425 319° Northwest 411 473 32,000  Level Denver Center
11:18PM 41.8375 -105.6403 319° Northwest 415 478 32,000  Level Denver Center
11:19PM 41.9208 -105.7392 319° Northwest 416 479 32,000  Level Denver Center
11:20PM 42.0197 -105.8567 319° Northwest 422 486 32,000  Level Denver Center
11:21PM 42.1019 -105.9556 318° Northwest 416 479 32,000  Level Denver Center
11:22PM 42.1986 -106.0722 318° Northwest 416 479 32,000  Level Denver Center
11:23PM 42.2803 -106.1706 318° Northwest 413 475 32,000  Level Denver Center
11:24PM 42.3614 -106.2697 318° Northwest 410 472 32,000  Level Denver Center
11:25PM 42.4564 -106.3847 318° Northwest 409 471 32,000  Level Denver Center
11:26PM 42.5367 -106.4833 318° Northwest 408 470 32,000  Level Denver Center
11:27PM 42.6181 -106.5817 318° Northwest 408 470 32,000  Level Denver Center
11:28PM 42.7094 -106.6961 317° Northwest 403 464 32,000  Level Denver Center
11:29PM 42.7906 -106.7933 319° Northwest 404 465 32,000  Level Denver Center
11:30PM 42.8694 -106.8925 317° Northwest 402 463 32,000  Level Denver Center
11:31PM 42.9506 -106.9956 317° Northwest 400 460 32,000  Level Salt Lake Center
11:32PM 43.0333 -107.0986 318° Northwest 403 464 32,000  Level Salt Lake Center
11:33PM 43.1161 -107.2017 318° Northwest 403 464 32,000  Level Salt Lake Center
11:34PM 43.1978 -107.3061 317° Northwest 403 464 32,000  Level Salt Lake Center
11:35PM 43.2800 -107.4083 318° Northwest 399 459 32,000  Level Salt Lake Center
11:36PM 43.3783 -107.5333 317° Northwest 401 461 32,000  Level Salt Lake Center
11:37PM 43.4653 -107.6256 322° Northwest 395 455 32,000 -420 Level Salt Lake Center
11:38PM 43.5558 -107.7078 327° Northwest 391 450 31,200 -1,500 Descending Salt Lake Center
11:39PM 43.6494 -107.7936 326° Northwest 401 461 29,000 -2,100 Descending Salt Lake Center
11:40PM 43.7433 -107.8817 326° Northwest 408 470 27,000 -2,100 Descending Salt Lake Center
11:41PM 43.8369 -107.9675 327° Northwest 404 465 24,800 -2,160 Descending Salt Lake Center
11:42PM 43.9281 -108.0550 325° Northwest 400 460 22,700 -2,100 Descending Salt Lake Center
11:43PM 44.0178 -108.1381 326° Northwest 389 448 20,600 -2,040 Descending Salt Lake Center
11:44PM 44.1064 -108.2214 326° Northwest 386 444 18,600 -1,860 Descending Salt Lake Center
11:45PM 44.1883 -108.3003 325° Northwest 375 432 16,900 -1,860 Descending Salt Lake Center
11:47PM 44.2681 -108.3767 326° Northwest 363 418 14,900 -1,980 Descending Salt Lake Center
11:48PM 44.3464 -108.4514 326° Northwest 352 405 12,900 -1,800 Descending Salt Lake Center
11:49PM 44.4344 -108.5358 326° Northwest 336 387 11,300 -1,320 Descending Salt Lake Center
11:50PM 44.4875 -108.5867 326° Northwest 275 316 10,300 -960 Descending Salt Lake Center
11:51PM 44.5406 -108.6358 327° Northwest 244 281 9,400 -840 Descending Salt Lake Center
11:52PM 44.5939 -108.6878 325° Northwest 236 272 8,700 -720 Descending Salt Lake Center
11:53PM 44.6447 -108.7414 323° Northwest 232 267 8,000 -540 Descending Salt Lake Center
11:54PM 44.6406 -108.8097 265° West 203 234 7,600 -300 Descending Salt Lake Center
11:55PM 44.6111 -108.8653 233° Southwest 187 215 7,500 -300 Descending Salt Lake Center
11:56PM 44.5850 -108.9114 232° Southwest 171 197 7,000 -600 Descending Salt Lake Center
11:57PM 44.5625 -108.9519 232° Southwest 148 170 6,300 -540 Descending Salt Lake Center
11:58PM 44.5342 -109.0017 231° Southwest 145 167 6,000 -300 Descending Salt Lake Center
12:00AM 44.5167 -109.0167 245° Southwest  Level FlightAware Approximate